createdAt,value
2019-04-30T00:01:26.790Z,3.13
2019-04-30T00:04:00.690Z,3.13
2019-04-30T00:06:34.374Z,2.50
2019-04-30T00:09:02.433Z,2.67
2019-04-30T00:11:32.496Z,3.60
2019-04-30T00:14:02.586Z,3.23
2019-04-30T00:16:36.195Z,3.00
2019-04-30T00:19:06.135Z,2.77
2019-04-30T00:21:36.386Z,3.00
2019-04-30T00:24:10.282Z,3.00
2019-04-30T00:26:39.942Z,2.93
2019-04-30T00:29:10.070Z,3.17
2019-04-30T00:31:40.067Z,3.10
2019-04-30T00:34:10.175Z,3.30
2019-04-30T00:36:40.153Z,2.80
2019-04-30T00:39:13.314Z,2.97
2019-04-30T00:41:45.913Z,3.20
2019-04-30T00:44:15.144Z,3.33
2019-04-30T00:46:45.792Z,3.73
2019-04-30T00:49:22.854Z,3.60
2019-04-30T00:51:49.895Z,3.50
2019-04-30T00:54:22.553Z,3.20
2019-04-30T00:56:52.177Z,3.20
2019-04-30T00:59:22.183Z,3.10
2019-04-30T01:02:06.076Z,2.87
2019-04-30T01:04:47.830Z,2.60
2019-04-30T01:07:17.800Z,3.17
2019-04-30T01:09:49.877Z,3.30
2019-04-30T01:12:27.711Z,3.27
2019-04-30T01:14:51.220Z,3.20
2019-04-30T01:17:21.186Z,3.93
2019-04-30T01:19:54.536Z,3.93
2019-04-30T01:22:28.196Z,2.67
2019-04-30T01:24:54.793Z,3.47
2019-04-30T01:27:24.807Z,3.10
2019-04-30T01:29:54.968Z,3.43
2019-04-30T01:32:24.992Z,3.73
2019-04-30T01:34:55.538Z,3.60
2019-04-30T01:37:29.632Z,2.73
2019-04-30T01:39:58.938Z,3.00
2019-04-30T01:42:29.050Z,3.10
2019-04-30T01:44:59.060Z,3.20
2019-04-30T01:47:31.220Z,3.20
2019-04-30T01:50:04.730Z,3.33
2019-04-30T01:52:50.506Z,2.70
2019-04-30T01:55:22.158Z,3.50
2019-04-30T01:58:14.204Z,3.27
2019-04-30T02:00:51.288Z,2.67
2019-04-30T02:03:21.713Z,2.70
2019-04-30T02:05:51.753Z,2.80
2019-04-30T02:08:21.804Z,2.67
2019-04-30T02:10:51.906Z,2.93
2019-04-30T02:13:21.891Z,2.80
2019-04-30T02:15:51.896Z,2.53
2019-04-30T02:18:21.989Z,2.93
2019-04-30T02:20:51.964Z,3.13
2019-04-30T02:23:21.989Z,2.50
2019-04-30T02:25:52.069Z,2.43
2019-04-30T02:28:22.088Z,2.70
2019-04-30T02:30:52.145Z,2.60
2019-04-30T02:33:22.261Z,3.17
2019-04-30T02:36:20.260Z,3.87
2019-04-30T02:38:52.724Z,3.47
2019-04-30T02:41:23.029Z,3.27
2019-04-30T02:43:54.583Z,3.00
2019-04-30T02:46:29.213Z,2.93
2019-04-30T02:48:59.777Z,2.63
2019-04-30T02:51:31.664Z,2.90
2019-04-30T02:54:31.544Z,3.07
2019-04-30T02:57:14.337Z,3.50
2019-04-30T03:00:02.497Z,2.97
2019-04-30T03:02:33.225Z,3.20
2019-04-30T03:05:03.229Z,2.50
2019-04-30T03:07:33.235Z,3.20
2019-04-30T03:10:03.286Z,3.27
2019-04-30T03:12:33.889Z,2.97
2019-04-30T03:15:04.031Z,2.70
2019-04-30T03:17:50.609Z,2.70
2019-04-30T03:20:36.851Z,3.13
2019-04-30T03:23:09.838Z,2.37
2019-04-30T03:25:40.592Z,2.57
2019-04-30T03:28:10.707Z,2.80
2019-04-30T03:30:41.795Z,2.57
2019-04-30T03:33:13.285Z,2.40
2019-04-30T03:35:47.807Z,2.87
2019-04-30T03:38:15.398Z,2.97
2019-04-30T03:40:45.337Z,3.67
2019-04-30T03:43:15.364Z,3.43
2019-04-30T03:45:45.325Z,2.70
2019-04-30T03:48:15.328Z,3.20
2019-04-30T03:50:53.296Z,2.20
2019-04-30T03:53:17.069Z,2.43
2019-04-30T03:55:47.157Z,2.43
2019-04-30T03:58:20.806Z,2.47
2019-04-30T04:01:14.217Z,3.10
2019-04-30T04:04:02.361Z,3.07
2019-04-30T04:06:39.474Z,2.87
2019-04-30T04:09:21.959Z,3.07
2019-04-30T04:11:51.009Z,3.03
2019-04-30T04:14:21.181Z,3.50
2019-04-30T04:16:51.224Z,3.30
2019-04-30T04:19:21.315Z,2.57
2019-04-30T04:21:51.315Z,3.00
2019-04-30T04:24:21.327Z,3.03
2019-04-30T04:26:51.357Z,2.77
2019-04-30T04:29:21.425Z,3.30
2019-04-30T04:31:51.403Z,2.70
2019-04-30T04:34:21.393Z,2.60
2019-04-30T04:36:51.432Z,2.70
2019-04-30T04:39:21.430Z,3.00
2019-04-30T04:41:51.540Z,2.80
2019-04-30T04:44:21.531Z,3.33
2019-04-30T04:46:51.491Z,3.10
2019-04-30T04:49:21.492Z,3.30
2019-04-30T04:51:51.459Z,2.90
2019-04-30T04:54:21.554Z,2.87
2019-04-30T04:56:54.749Z,3.20
2019-04-30T04:59:23.279Z,2.93
2019-04-30T05:01:53.342Z,5.27
2019-04-30T05:04:23.375Z,6.47
2019-04-30T05:06:53.372Z,6.10
2019-04-30T05:09:23.418Z,7.43
2019-04-30T05:11:53.496Z,7.13
2019-04-30T05:14:23.516Z,7.23
2019-04-30T05:16:53.509Z,7.07
2019-04-30T05:19:23.550Z,7.97
2019-04-30T05:21:53.532Z,7.37
2019-04-30T05:24:23.531Z,7.17
2019-04-30T05:26:53.521Z,7.60
2019-04-30T05:29:23.550Z,7.73
2019-04-30T05:31:53.593Z,7.97
2019-04-30T05:34:23.610Z,7.93
2019-04-30T05:36:53.632Z,8.20
2019-04-30T05:39:23.628Z,8.13
2019-04-30T05:41:53.663Z,8.70
2019-04-30T05:44:23.673Z,8.20
2019-04-30T05:46:53.668Z,8.70
2019-04-30T05:49:23.751Z,9.23
2019-04-30T05:51:55.875Z,8.33
2019-04-30T05:54:25.453Z,9.00
2019-04-30T05:56:55.446Z,8.87
2019-04-30T05:59:25.488Z,8.80
2019-04-30T06:01:55.618Z,8.20
2019-04-30T06:04:25.575Z,8.73
2019-04-30T06:06:55.609Z,8.47
2019-04-30T06:09:34.262Z,9.33
2019-04-30T06:12:22.175Z,8.17
2019-04-30T06:14:56.206Z,8.70
2019-04-30T06:17:29.396Z,8.57
2019-04-30T06:19:59.462Z,9.20
2019-04-30T06:22:29.519Z,8.33
2019-04-30T06:24:59.600Z,8.53
2019-04-30T06:27:29.918Z,8.70
2019-04-30T06:29:59.898Z,7.53
2019-04-30T06:32:30.070Z,8.00
2019-04-30T06:35:00.064Z,8.10
2019-04-30T06:37:31.561Z,8.20
2019-04-30T06:40:01.742Z,8.67
2019-04-30T06:42:31.833Z,8.13
2019-04-30T06:45:01.832Z,8.47
2019-04-30T06:47:33.450Z,8.37
2019-04-30T06:50:03.548Z,8.37
2019-04-30T06:52:33.583Z,8.70
2019-04-30T06:55:03.613Z,8.90
2019-04-30T06:57:33.643Z,9.73
2019-04-30T07:00:03.647Z,8.97
2019-04-30T07:02:33.735Z,8.80
2019-04-30T07:05:03.779Z,8.60
2019-04-30T07:07:39.004Z,9.17
2019-04-30T07:10:17.000Z,8.47
2019-04-30T07:12:50.609Z,8.73
2019-04-30T07:15:20.626Z,8.17
2019-04-30T07:17:50.645Z,8.10
2019-04-30T07:20:20.660Z,8.47
2019-04-30T07:22:59.113Z,8.10
2019-04-30T07:25:22.436Z,8.57
2019-04-30T07:27:52.498Z,9.47
2019-04-30T07:30:22.584Z,9.50
2019-04-30T07:32:52.718Z,8.73
2019-04-30T07:35:22.740Z,9.03
2019-04-30T07:37:54.636Z,8.50
2019-04-30T07:40:24.489Z,8.90
2019-04-30T07:42:54.618Z,8.33
2019-04-30T07:45:25.765Z,9.23
2019-04-30T07:47:55.853Z,9.43
2019-04-30T07:50:26.453Z,7.97
2019-04-30T07:53:04.736Z,8.23
2019-04-30T07:55:29.544Z,8.07
2019-04-30T07:57:59.699Z,8.37
2019-04-30T08:00:31.315Z,8.57
2019-04-30T08:03:10.693Z,8.23
2019-04-30T08:05:42.693Z,8.53
2019-04-30T08:08:21.211Z,9.43
2019-04-30T08:10:44.540Z,8.67
2019-04-30T08:13:15.757Z,9.67
2019-04-30T08:15:46.508Z,9.33
2019-04-30T08:18:18.397Z,8.93
2019-04-30T08:20:49.016Z,9.67
2019-04-30T08:23:33.061Z,9.40
2019-04-30T08:25:50.827Z,9.40
2019-04-30T08:28:20.873Z,10.27
2019-04-30T08:30:50.877Z,9.67
2019-04-30T08:33:21.020Z,8.80
2019-04-30T08:35:51.097Z,9.50
2019-04-30T08:38:21.143Z,10.00
2019-04-30T08:40:55.986Z,8.90
2019-04-30T08:43:22.929Z,9.50
2019-04-30T08:45:53.010Z,9.70
2019-04-30T08:48:23.081Z,10.97
2019-04-30T08:50:52.202Z,10.43
2019-04-30T08:53:29.507Z,10.73
2019-04-30T08:55:53.851Z,11.00
2019-04-30T08:58:23.993Z,10.43
2019-04-30T09:00:54.135Z,11.37
2019-04-30T09:03:24.243Z,12.20
2019-04-30T09:06:01.255Z,10.70
2019-04-30T09:08:31.349Z,11.63
2019-04-30T09:11:01.385Z,12.07
2019-04-30T09:13:31.419Z,11.57
2019-04-30T09:16:01.454Z,11.47
2019-04-30T09:18:31.508Z,12.17
2019-04-30T09:21:06.074Z,12.20
2019-04-30T09:23:43.965Z,12.13
2019-04-30T09:26:05.125Z,11.83
2019-04-30T09:28:35.131Z,12.63
2019-04-30T09:31:05.211Z,11.60
2019-04-30T09:33:35.210Z,12.10
2019-04-30T09:36:05.348Z,12.27
2019-04-30T09:38:35.391Z,11.93
2019-04-30T09:41:05.505Z,12.13
2019-04-30T09:43:35.545Z,12.80
2019-04-30T09:46:15.391Z,11.67
2019-04-30T09:48:38.645Z,12.20
2019-04-30T09:51:10.761Z,12.28
2019-04-30T09:53:40.946Z,12.87
2019-04-30T09:56:11.126Z,13.03
2019-04-30T09:58:41.223Z,14.20
2019-04-30T10:01:11.267Z,13.43
2019-04-30T10:03:42.016Z,12.65
2019-04-30T10:06:12.565Z,11.55
2019-04-30T10:08:48.443Z,12.28
2019-04-30T10:11:50.115Z,12.10
2019-04-30T10:17:42.025Z,11.95
2019-04-30T10:20:13.354Z,12.13
2019-04-30T10:22:43.384Z,12.53
2019-04-30T10:25:13.623Z,11.43
2019-04-30T10:27:43.674Z,12.63
2019-04-30T10:30:14.693Z,12.35
2019-04-30T10:32:44.737Z,11.57
2019-04-30T10:35:14.795Z,12.63
2019-04-30T10:37:44.828Z,11.43
2019-04-30T10:40:15.161Z,12.75
2019-04-30T10:42:45.193Z,11.83
2019-04-30T10:45:15.468Z,12.40
2019-04-30T10:47:45.468Z,11.05
2019-04-30T10:50:15.692Z,11.70
2019-04-30T10:52:45.764Z,12.00
2019-04-30T10:55:15.788Z,11.35
2019-04-30T10:57:45.844Z,12.00
2019-04-30T11:00:16.275Z,10.75
2019-04-30T11:02:46.314Z,11.88
2019-04-30T11:05:16.510Z,11.28
2019-04-30T11:07:46.646Z,11.33
2019-04-30T11:10:18.773Z,12.00
2019-04-30T11:12:48.652Z,11.18
2019-04-30T11:15:20.634Z,10.53
2019-04-30T11:17:50.810Z,10.75
2019-04-30T11:20:22.196Z,10.58
2019-04-30T11:22:54.761Z,10.53
2019-04-30T11:25:25.051Z,11.25
2019-04-30T11:27:56.399Z,10.75
2019-04-30T11:30:27.715Z,11.20
2019-04-30T11:32:58.792Z,10.72
2019-04-30T11:35:29.704Z,10.28
2019-04-30T11:37:59.836Z,10.13
2019-04-30T11:40:36.874Z,12.30
2019-04-30T11:43:03.622Z,11.00
2019-04-30T11:46:18.709Z,10.25
2019-04-30T11:48:49.088Z,10.53
2019-04-30T11:51:19.437Z,11.08
2019-04-30T11:53:49.802Z,10.90
2019-04-30T11:56:19.810Z,10.93
2019-04-30T11:58:49.850Z,9.80
2019-04-30T12:01:22.382Z,10.93
2019-04-30T12:03:52.468Z,10.25
2019-04-30T12:06:22.507Z,11.30
2019-04-30T12:09:09.205Z,12.03
2019-04-30T12:11:39.230Z,11.00
2019-04-30T12:14:09.249Z,11.40
2019-04-30T12:16:39.623Z,10.65
2019-04-30T12:19:09.932Z,9.90
2019-04-30T12:21:39.954Z,10.20
2019-04-30T12:24:09.998Z,11.20
2019-04-30T12:26:40.026Z,11.18
2019-04-30T12:29:11.241Z,10.60
2019-04-30T12:31:41.416Z,10.23
2019-04-30T12:34:11.466Z,10.60
2019-04-30T12:36:41.500Z,11.12
2019-04-30T12:39:11.622Z,11.43
2019-04-30T12:41:41.648Z,11.03
2019-04-30T12:44:11.788Z,11.43
2019-04-30T12:46:41.980Z,10.88
2019-04-30T12:49:13.106Z,10.23
2019-04-30T12:51:59.866Z,10.55
2019-04-30T12:54:50.866Z,10.72
2019-04-30T12:57:56.142Z,11.83
2019-04-30T13:00:19.514Z,11.22
2019-04-30T13:02:49.668Z,12.20
2019-04-30T13:05:20.679Z,10.88
2019-04-30T13:07:51.389Z,11.68
2019-04-30T13:10:22.670Z,10.60
2019-04-30T13:12:53.595Z,11.05
2019-04-30T13:15:24.027Z,11.18
2019-04-30T13:17:54.161Z,10.50
2019-04-30T13:20:24.517Z,10.70
2019-04-30T13:22:54.836Z,11.03
2019-04-30T13:25:32.488Z,11.55
2019-04-30T13:28:01.410Z,11.57
2019-04-30T13:30:32.262Z,10.78
2019-04-30T13:33:20.259Z,11.20
2019-04-30T13:35:48.970Z,11.00
2019-04-30T13:38:30.348Z,11.25
2019-04-30T13:41:06.194Z,11.73
2019-04-30T13:43:54.011Z,12.00
2019-04-30T13:46:24.525Z,11.78
2019-04-30T13:48:54.566Z,11.25
2019-04-30T13:51:24.687Z,11.20
2019-04-30T13:53:54.720Z,11.78
2019-04-30T13:56:24.811Z,11.78
2019-04-30T13:58:54.834Z,12.15
2019-04-30T14:01:24.913Z,12.05
2019-04-30T14:04:17.318Z,11.93
2019-04-30T14:07:15.751Z,11.05
2019-04-30T14:09:45.956Z,11.25
2019-04-30T14:12:15.986Z,11.50
2019-04-30T14:14:46.075Z,11.40
2019-04-30T14:17:17.295Z,12.20
2019-04-30T14:19:48.453Z,12.70
2019-04-30T14:22:18.593Z,11.97
2019-04-30T14:24:48.689Z,12.53
2019-04-30T14:27:18.726Z,12.50
2019-04-30T14:29:51.114Z,12.10
2019-04-30T14:32:21.175Z,12.43
2019-04-30T14:34:51.273Z,11.43
2019-04-30T14:37:21.467Z,12.55
2019-04-30T14:39:52.170Z,11.93
2019-04-30T14:42:23.605Z,12.63
2019-04-30T14:45:03.843Z,12.68
2019-04-30T14:47:42.827Z,12.45
2019-04-30T14:50:15.324Z,12.58
2019-04-30T14:53:07.427Z,12.85
2019-04-30T14:56:09.477Z,12.78
2019-04-30T14:58:55.637Z,13.38
2019-04-30T15:01:45.659Z,12.20
2019-04-30T15:04:15.714Z,12.05
2019-04-30T15:06:45.793Z,12.95
2019-04-30T15:09:15.999Z,13.40
2019-04-30T15:11:46.085Z,13.72
2019-04-30T15:14:16.149Z,13.72
2019-04-30T15:16:46.220Z,14.07
2019-04-30T15:19:16.361Z,13.30
2019-04-30T15:21:46.497Z,12.88
2019-04-30T15:24:30.163Z,14.55
2019-04-30T15:27:00.209Z,14.05
2019-04-30T15:29:30.397Z,14.18
2019-04-30T15:32:00.502Z,14.47
2019-04-30T15:34:30.537Z,14.87
2019-04-30T15:37:00.606Z,14.23
2019-04-30T15:39:49.031Z,14.75
2019-04-30T15:42:20.372Z,15.30
2019-04-30T15:44:50.522Z,14.07
2019-04-30T15:47:21.759Z,13.75
2019-04-30T15:49:51.968Z,15.55
2019-04-30T15:52:22.075Z,15.10
2019-04-30T15:54:52.077Z,15.55
2019-04-30T15:57:22.134Z,14.78
2019-04-30T15:59:52.161Z,14.80
2019-04-30T16:02:35.197Z,14.55
2019-04-30T16:05:25.343Z,14.80
2019-04-30T16:08:20.408Z,15.70
2019-04-30T16:11:03.786Z,14.90
2019-04-30T16:13:42.538Z,14.20
2019-04-30T16:16:13.280Z,15.58
2019-04-30T16:18:49.354Z,14.47
2019-04-30T16:21:19.596Z,14.93
2019-04-30T16:23:49.668Z,15.58
2019-04-30T16:26:19.745Z,15.45
2019-04-30T16:28:49.797Z,15.18
2019-04-30T16:31:20.537Z,13.83
2019-04-30T16:33:50.883Z,13.93
2019-04-30T16:36:20.920Z,13.62
2019-04-30T16:38:50.988Z,13.45
2019-04-30T16:41:31.191Z,13.93
2019-04-30T16:43:52.889Z,14.10
2019-04-30T16:46:22.932Z,14.23
2019-04-30T16:48:53.046Z,13.45
2019-04-30T16:51:23.096Z,14.05
2019-04-30T16:53:53.215Z,13.85
2019-04-30T16:56:23.322Z,13.22
2019-04-30T16:58:59.437Z,13.30
2019-04-30T17:01:30.957Z,13.03
2019-04-30T17:04:22.326Z,13.75
2019-04-30T17:06:58.828Z,13.83
2019-04-30T17:09:43.619Z,13.40
2019-04-30T17:12:38.770Z,13.75
2019-04-30T17:15:24.294Z,13.53
2019-04-30T17:17:54.432Z,13.40
2019-04-30T17:20:24.611Z,13.87
2019-04-30T17:22:54.633Z,14.95
2019-04-30T17:25:24.685Z,13.25
2019-04-30T17:27:54.713Z,13.75
2019-04-30T17:30:24.853Z,14.45
2019-04-30T17:32:54.986Z,13.28
2019-04-30T17:35:25.035Z,13.70
2019-04-30T17:37:55.080Z,13.70
2019-04-30T17:40:25.257Z,14.03
2019-04-30T17:42:55.268Z,14.47
2019-04-30T17:45:25.351Z,13.58
2019-04-30T17:47:55.406Z,13.38
2019-04-30T17:50:25.481Z,13.38
2019-04-30T17:52:55.553Z,14.57
2019-04-30T17:55:25.652Z,15.38
2019-04-30T17:57:55.723Z,16.25
2019-04-30T18:00:29.278Z,15.03
2019-04-30T18:02:59.432Z,15.00
2019-04-30T18:05:29.786Z,15.30
2019-04-30T18:07:59.895Z,14.60
2019-04-30T18:10:30.563Z,15.30
2019-04-30T18:13:00.622Z,16.03
2019-04-30T18:15:31.165Z,13.77
2019-04-30T18:18:13.413Z,14.93
2019-04-30T18:20:49.156Z,14.25
2019-04-30T18:23:29.132Z,15.20
2019-04-30T18:26:04.559Z,14.90
2019-04-30T18:28:34.618Z,14.73
2019-04-30T18:31:04.771Z,15.70
2019-04-30T18:33:34.836Z,14.75
2019-04-30T18:36:04.913Z,15.50
2019-04-30T18:38:34.933Z,15.30
2019-04-30T18:41:04.991Z,15.00
2019-04-30T18:43:37.822Z,14.20
2019-04-30T18:46:06.863Z,14.40
2019-04-30T18:48:36.872Z,14.60
2019-04-30T18:51:19.189Z,14.37
2019-04-30T18:53:39.712Z,15.23
2019-04-30T18:56:14.534Z,14.63
2019-04-30T18:58:43.136Z,14.13
2019-04-30T19:01:13.618Z,15.47
2019-04-30T19:03:43.670Z,15.23
2019-04-30T19:06:23.805Z,13.83
2019-04-30T19:09:09.640Z,15.47
2019-04-30T19:11:45.903Z,15.20
2019-04-30T19:14:40.596Z,14.53
2019-04-30T19:17:24.022Z,14.67
2019-04-30T19:20:06.463Z,15.77
2019-04-30T19:22:36.536Z,15.77
2019-04-30T19:25:06.651Z,14.60
2019-04-30T19:27:36.722Z,14.60
2019-04-30T19:30:09.311Z,14.93
2019-04-30T19:32:39.483Z,14.20
2019-04-30T19:35:09.640Z,15.27
2019-04-30T19:37:40.346Z,15.07
2019-04-30T19:40:10.594Z,15.23
2019-04-30T19:42:40.671Z,14.87
2019-04-30T19:45:12.474Z,14.47
2019-04-30T19:47:42.501Z,14.80
2019-04-30T19:50:14.107Z,14.97
2019-04-30T19:52:44.537Z,15.33
2019-04-30T19:55:14.572Z,14.80
2019-04-30T19:57:44.678Z,15.50
2019-04-30T20:00:14.832Z,14.00
2019-04-30T20:02:44.863Z,14.80
2019-04-30T20:05:14.969Z,14.93
2019-04-30T20:07:45.094Z,14.43
2019-04-30T20:10:15.248Z,15.03
2019-04-30T20:12:45.300Z,14.33
2019-04-30T20:15:19.051Z,14.37
2019-04-30T20:17:47.108Z,14.33
2019-04-30T20:20:18.895Z,15.00
2019-04-30T20:22:51.776Z,14.47
2019-04-30T20:25:20.767Z,14.23
2019-04-30T20:27:50.858Z,14.60
2019-04-30T20:30:20.936Z,14.20
2019-04-30T20:32:51.405Z,15.10
2019-04-30T20:35:21.522Z,14.77
2019-04-30T20:38:09.564Z,14.20
2019-04-30T20:40:43.637Z,13.13
2019-04-30T20:43:13.305Z,14.43
2019-04-30T20:45:43.340Z,13.17
2019-04-30T20:48:13.378Z,13.57
2019-04-30T20:50:43.393Z,12.70
2019-04-30T20:53:13.582Z,14.10
2019-04-30T20:55:43.620Z,13.93
2019-04-30T20:58:13.643Z,13.60
2019-04-30T21:00:43.659Z,13.63
2019-04-30T21:03:13.735Z,14.23
2019-04-30T21:05:43.744Z,13.03
2019-04-30T21:08:13.824Z,13.97
2019-04-30T21:10:43.858Z,14.80
2019-04-30T21:13:14.004Z,14.63
2019-04-30T21:15:44.035Z,14.07
2019-04-30T21:18:14.132Z,13.97
2019-04-30T21:20:44.149Z,12.90
2019-04-30T21:23:14.319Z,14.17
2019-04-30T21:25:44.317Z,13.47
2019-04-30T21:28:14.391Z,14.17
2019-04-30T21:30:44.482Z,13.83
2019-04-30T21:33:42.611Z,13.20
2019-04-30T21:36:18.420Z,13.37
2019-04-30T21:38:49.048Z,13.20
2019-04-30T21:41:19.633Z,13.50
2019-04-30T21:43:49.847Z,13.13
2019-04-30T21:46:19.926Z,13.40
2019-04-30T21:48:49.995Z,14.00
2019-04-30T21:51:20.075Z,13.73
2019-04-30T21:53:50.474Z,13.97
2019-04-30T21:56:20.597Z,13.87
2019-04-30T21:58:50.673Z,13.30
2019-04-30T22:01:27.301Z,14.80
2019-04-30T22:03:57.433Z,13.97
2019-04-30T22:06:29.441Z,14.90
2019-04-30T22:08:59.292Z,15.37
2019-04-30T22:11:29.724Z,14.80
2019-04-30T22:13:59.965Z,14.93
2019-04-30T22:16:29.995Z,15.63
2019-04-30T22:19:00.115Z,14.83
2019-04-30T22:21:30.532Z,14.63
2019-04-30T22:24:00.652Z,15.60
2019-04-30T22:26:30.696Z,15.10
2019-04-30T22:29:00.764Z,14.80
2019-04-30T22:31:30.831Z,14.97
2019-04-30T22:34:00.907Z,15.70
2019-04-30T22:36:41.764Z,14.63
2019-04-30T22:39:46.004Z,15.10
2019-04-30T22:42:36.584Z,15.80
2019-04-30T22:45:19.142Z,15.37
2019-04-30T22:47:50.365Z,14.20
2019-04-30T22:50:20.628Z,15.00
2019-04-30T22:52:50.683Z,14.30
2019-04-30T22:55:20.754Z,14.60
2019-04-30T22:57:50.770Z,15.13
2019-04-30T23:00:26.302Z,14.20
2019-04-30T23:02:58.876Z,15.13
2019-04-30T23:05:28.940Z,14.73
2019-04-30T23:07:59.024Z,15.30
2019-04-30T23:10:29.104Z,16.10
2019-04-30T23:12:59.122Z,14.77
2019-04-30T23:15:29.266Z,18.87
2019-04-30T23:17:59.302Z,16.17
2019-04-30T23:20:29.755Z,15.90
2019-04-30T23:22:59.762Z,15.37
2019-04-30T23:25:29.868Z,15.33
2019-04-30T23:27:59.874Z,15.27
2019-04-30T23:30:30.328Z,16.27
2019-04-30T23:33:00.560Z,15.67
2019-04-30T23:35:30.585Z,15.33
2019-04-30T23:38:00.631Z,14.43
2019-04-30T23:40:37.178Z,14.37
2019-04-30T23:43:07.262Z,15.30
2019-04-30T23:45:37.296Z,16.03
2019-04-30T23:48:07.338Z,14.93
2019-04-30T23:50:37.426Z,15.13
2019-04-30T23:53:07.510Z,14.63
2019-04-30T23:55:37.522Z,15.47
2019-04-30T23:58:07.589Z,15.50
